الصفحة الرئيسية
METAR-TAF:

METAR-TAF

مطار :

مطار الرباط سلا

الرباط, المغرب

دائرة عرض: 34-03N, خط طول: 006-46W, ارتفاع: 84 متر

مراقبة الطقس الحالي

تاريخ ووقت الإصدار 13 دقيقة قبل الساعة 08:30UTC
رياح هادئة
درجة الحرارة 24°درجة مئوية
الرطوبة 57%
ضغط 1016 hPa
الرؤية: 8000 متر
غيوم متفرقة على ارتفاع 3000 قدم

METAR: GMME 120830Z 00000KT 8000 SCT030 24/15 Q1016 NOSIG

زمن: 09:43 (08:43 UTC)

توقعات

تاريخ ووقت الإصدار 3ساعات و 43 دقيقة قبل الساعة 05:00UTC
التوقعات صالحة من12 الساعة 06 UTC إلى 13 الساعة 12 UTC
ريح 2 عقدةمن اتجاهات متغيرة
الرؤية: 8000 متر
غيوم مفككة على ارتفاع 2600 قدم
أصبح
من 12 الساعة 08 UTC إلى 12 الساعة 12 UTC
ريح 6 عقدة من الغرب
مؤقت
من 12 الساعة 12 UTC إلى 12 الساعة 18 UTC
ريح 11 عقدة من الشمال الغربي
مؤقت
من 12 الساعة 18 UTC إلى 12 الساعة 24 UTC
ريح 4 عقدة من الشمال/الشمال الشرقي

TAF: GMME 120500Z 1206/1312 VRB02KT 8000 BKN026 BECMG 1208/1212 26006KT TEMPO 1212/1218 32011KT TEMPO 1218/1224 02004KT

أرصاد الطقس والتوقعات من أكثر من 4000 مطار (تقارير الطقس للمطار METAR والتنبؤ بالطقس بالمطارTAF).

المحطات المتاحة هي النقط الصفراء والحمراء على الخريطة.

حرك المؤشر فوق النقطة لمعرفة اسم المحطة.

ثم انقر لمعرفة أرصاد وتوقعات الطقس.

لتغيير الخارطة: اضغط على الأزرار الخضراء مع رمز الصليب الأسود للتكبير. على الزر الأخضر مع شرطة للتصغير، أو على الأسهم الخضراء للخرائط المجاورة.


METAR-TAF: